Time;durP1;ratioP1;P1;durP2;ratioP2;P2;SDS_P1;SDS_P2;PMS_P1;PMS_P2;Temp;Humidity;BMP_temperature;BMP_pressure;BME280_temperature;BME280_humidity;BME280_pressure;Samples;Min_cycle;Max_cycle;Signal;HPM_P1;HPM_P2
2022/05/10 00:02:15;;;;;;;6.18;2.80;;;16.20;91.10;;;;;;5012361;28;20024;-74
2022/05/10 00:04:50;;;;;;;4.25;2.83;;;16.10;91.20;;;;;;5017554;28;20021;-74
2022/05/10 00:07:16;;;;;;;4.75;2.47;;;16.10;91.20;;;;;;5013599;28;20022;-74
2022/05/10 00:09:48;;;;;;;6.47;3.05;;;16.00;90.90;;;;;;5016759;28;20414;-74
2022/05/10 00:12:16;;;;;;;6.70;3.08;;;16.00;90.70;;;;;;5013097;28;20025;-74
2022/05/10 00:14:44;;;;;;;6.03;3.20;;;16.00;90.70;;;;;;5016542;28;20017;-74
2022/05/10 00:17:25;;;;;;;3.40;2.88;;;16.00;91.00;;;;;;5027967;28;20756;-74
2022/05/10 00:19:54;;;;;;;5.38;3.20;;;15.90;91.10;;;;;;5014683;28;20235;-75
2022/05/10 00:22:20;;;;;;;5.43;2.83;;;15.90;91.40;;;;;;5017794;28;20052;-74
2022/05/10 00:24:50;;;;;;;6.53;3.20;;;15.90;91.50;;;;;;5032811;28;20024;-74
2022/05/10 00:27:18;;;;;;;4.25;2.97;;;15.80;91.70;;;;;;5013220;28;20819;-74
2022/05/10 00:29:44;;;;;;;6.47;2.85;;;15.80;91.80;;;;;;5016074;28;20091;-75
2022/05/10 00:32:11;;;;;;;4.60;3.08;;;15.70;92.00;;;;;;5012704;28;20021;-74
2022/05/10 00:34:38;;;;;;;5.13;2.97;;;15.70;92.00;;;;;;5017269;28;20048;-74
2022/05/10 00:37:12;;;;;;;3.97;3.22;;;15.70;91.40;;;;;;5010825;28;20097;-74
2022/05/10 00:39:38;;;;;;;3.42;3.08;;;15.60;91.30;;;;;;5016595;28;20470;-74
2022/05/10 00:42:15;;;;;;;4.63;3.38;;;15.60;91.10;;;;;;5017229;28;20033;-74
2022/05/10 00:44:49;;;;;;;3.97;2.88;;;15.60;90.80;;;;;;5017560;28;20075;-74
2022/05/10 00:47:36;;;;;;;4.60;2.85;;;15.60;90.70;;;;;;5018007;28;20447;-74
2022/05/10 00:50:17;;;;;;;5.35;3.25;;;15.60;90.80;;;;;;5015257;28;20088;-74
2022/05/10 00:53:04;;;;;;;4.72;2.85;;;15.60;91.00;;;;;;5019160;28;20374;-74
2022/05/10 00:56:02;;;;;;;6.13;2.90;;;15.60;91.00;;;;;;5032963;28;20025;-74
2022/05/10 00:58:55;;;;;;;4.93;2.75;;;15.60;91.20;;;;;;5021038;28;20527;-74
2022/05/10 01:01:34;;;;;;;4.18;3.03;;;15.70;90.80;;;;;;5019585;28;20018;-74
2022/05/10 01:04:35;;;;;;;4.47;3.25;;;15.60;90.60;;;;;;5014438;28;20101;-75
2022/05/10 01:07:31;;;;;;;6.65;3.33;;;15.60;90.30;;;;;;5016732;28;20040;-74
2022/05/10 01:10:06;;;;;;;4.60;3.25;;;15.50;90.60;;;;;;5016141;28;20025;-74
2022/05/10 01:12:40;;;;;;;4.63;3.00;;;15.50;90.80;;;;;;5018107;28;20100;-75
2022/05/10 01:15:18;;;;;;;5.03;3.10;;;15.50;91.00;;;;;;5013957;28;20528;-74
2022/05/10 01:17:46;;;;;;;6.30;2.88;;;15.50;90.80;;;;;;5019663;28;20036;-74
2022/05/10 01:20:23;;;;;;;4.35;2.90;;;15.40;90.80;;;;;;5015668;28;20048;-74
2022/05/10 01:23:16;;;;;;;6.60;3.30;;;15.50;91.60;;;;;;5020728;28;20025;-75
2022/05/10 01:25:54;;;;;;;5.47;2.78;;;15.40;91.30;;;;;;5017333;28;20264;-74
2022/05/10 01:28:47;;;;;;;5.70;3.03;;;15.40;91.60;;;;;;5019521;28;20037;-75
2022/05/10 01:31:24;;;;;;;7.30;3.58;;;15.40;91.30;;;;;;5013197;28;20013;-74
2022/05/10 01:34:01;;;;;;;6.57;3.33;;;15.30;91.70;;;;;;5020222;28;20014;-74
2022/05/10 01:36:46;;;;;;;3.50;2.63;;;15.20;92.00;;;;;;5020856;28;20060;-74
2022/05/10 01:39:27;;;;;;;4.65;3.20;;;15.10;92.40;;;;;;5015691;28;20060;-74
2022/05/10 01:42:23;;;;;;;5.82;3.00;;;15.00;92.80;;;;;;5016995;28;20089;-74
2022/05/10 01:45:09;;;;;;;5.43;3.63;;;14.90;92.90;;;;;;5034312;28;20017;-74
2022/05/10 01:47:42;;;;;;;5.82;3.03;;;14.90;92.90;;;;;;5014318;28;20021;-74
2022/05/10 01:50:25;;;;;;;5.97;3.20;;;14.80;93.10;;;;;;5029643;28;20020;-74
2022/05/10 01:52:57;;;;;;;5.15;3.33;;;14.80;93.20;;;;;;5022444;28;20033;-74
2022/05/10 01:55:35;;;;;;;5.93;3.15;;;14.80;93.40;;;;;;5021307;28;20018;-74
2022/05/10 01:58:12;;;;;;;8.57;3.45;;;14.70;93.40;;;;;;5016914;28;20045;-74
2022/05/10 02:00:49;;;;;;;4.53;3.28;;;14.70;93.50;;;;;;5015370;28;20104;-74
2022/05/10 02:03:30;;;;;;;6.18;3.25;;;14.70;93.50;;;;;;5013814;28;20060;-74
2022/05/10 02:06:12;;;;;;;6.15;3.40;;;14.70;93.70;;;;;;5014982;28;20033;-74
2022/05/10 02:08:53;;;;;;;5.45;3.47;;;14.60;93.80;;;;;;5019649;28;20799;-74
2022/05/10 02:11:19;;;;;;;6.15;3.40;;;14.60;94.00;;;;;;5017294;28;20029;-74
2022/05/10 02:13:57;;;;;;;;;;;14.60;94.00;;;;;;5019274;28;20022;-74
2022/05/10 02:16:32;;;;;;;5.88;3.60;;;14.60;94.10;;;;;;5019261;28;19906;-74
2022/05/10 02:19:08;;;;;;;4.43;3.13;;;14.60;94.20;;;;;;5016055;28;20707;-74
2022/05/10 02:21:46;;;;;;;4.13;3.40;;;14.60;94.40;;;;;;5015876;28;20113;-74
2022/05/10 02:24:34;;;;;;;6.68;3.25;;;14.60;94.50;;;;;;5014811;28;20033;-74
2022/05/10 02:27:17;;;;;;;8.07;3.22;;;14.60;94.40;;;;;;5015820;28;20134;-74
2022/05/10 02:29:57;;;;;;;8.38;3.67;;;14.50;94.30;;;;;;5015215;28;20022;-74
2022/05/10 02:35:28;;;;;;;3.60;2.88;;;14.50;94.00;;;;;;5018487;28;20126;-74
2022/05/10 02:37:54;;;;;;;6.15;3.22;;;14.50;93.90;;;;;;5018622;28;20037;-74
2022/05/10 02:40:19;;;;;;;4.57;3.00;;;14.50;93.90;;;;;;5013257;28;20045;-74
2022/05/10 02:42:48;;;;;;;3.35;3.05;;;14.50;94.00;;;;;;5019301;28;20097;-74
2022/05/10 02:45:18;;;;;;;4.93;3.00;;;14.50;94.00;;;;;;5016173;28;20025;-74
2022/05/10 02:47:46;;;;;;;11.32;3.00;;;14.50;93.90;;;;;;5019049;28;20156;-74
2022/05/10 02:50:33;;;;;;;9.30;3.50;;;14.50;93.90;;;;;;5012965;28;20033;-73
2022/05/10 02:53:00;;;;;;;4.50;3.33;;;14.40;93.90;;;;;;5014065;28;20052;-74
2022/05/10 02:55:41;;;;;;;6.80;3.22;;;14.40;93.80;;;;;;5017549;28;21423;-74
2022/05/10 02:58:16;;;;;;;5.03;3.25;;;14.40;93.90;;;;;;5013338;28;20025;-74
2022/05/10 03:00:42;;;;;;;6.97;3.58;;;14.40;94.10;;;;;;5031002;28;20096;-74
2022/05/10 03:03:15;;;;;;;4.30;2.75;;;14.30;93.90;;;;;;5012156;28;20120;-73
2022/05/10 03:05:46;;;;;;;5.32;2.90;;;14.30;94.00;;;;;;5020110;28;20134;-75
2022/05/10 03:08:11;;;;;;;5.75;3.20;;;14.30;93.90;;;;;;5013010;28;20022;-74
2022/05/10 03:10:38;;;;;;;5.70;3.33;;;14.20;93.90;;;;;;5015089;28;20076;-74
2022/05/10 03:13:15;;;;;;;;;;;14.20;93.90;;;;;;5015751;28;20067;-74
2022/05/10 03:15:43;;;;;;;4.88;3.13;;;14.20;94.20;;;;;;5018548;28;19995;-74
2022/05/10 03:18:09;;;;;;;10.05;3.00;;;14.20;94.30;;;;;;5010331;28;20057;-74
2022/05/10 03:20:36;;;;;;;;;;;14.10;94.30;;;;;;5018019;28;20025;-74
2022/05/10 03:23:02;;;;;;;6.25;3.15;;;14.10;94.40;;;;;;5014419;28;19905;-73
2022/05/10 03:25:31;;;;;;;4.63;2.85;;;14.10;94.10;;;;;;5018493;28;20021;-74
2022/05/10 03:27:59;;;;;;;4.80;3.05;;;14.10;94.20;;;;;;5017917;28;20063;-74
2022/05/10 03:30:30;;;;;;;7.82;3.17;;;14.00;94.10;;;;;;5017238;28;20033;-74
2022/05/10 03:32:57;;;;;;;3.83;2.78;;;13.90;94.20;;;;;;5033335;28;20498;-74
2022/05/10 03:35:24;;;;;;;5.82;2.80;;;13.90;94.20;;;;;;5014313;28;20025;-74
2022/05/10 03:37:54;;;;;;;;;;;13.90;94.30;;;;;;5016191;28;20018;-74
2022/05/10 03:40:21;;;;;;;5.30;3.72;;;13.90;94.20;;;;;;5015469;28;19960;-74
2022/05/10 03:42:51;;;;;;;5.85;3.13;;;13.90;94.20;;;;;;5017658;28;20478;-74
2022/05/10 03:45:20;;;;;;;6.18;3.38;;;13.90;94.30;;;;;;5013966;28;20079;-74
2022/05/10 03:47:47;;;;;;;5.40;2.88;;;13.90;94.50;;;;;;5016109;28;20053;-74
2022/05/10 03:50:16;;;;;;;5.35;3.20;;;13.90;95.10;;;;;;5012213;28;20029;-73
2022/05/10 03:52:42;;;;;;;5.35;2.90;;;13.90;94.90;;;;;;5017363;28;20024;-74
2022/05/10 03:55:17;;;;;;;5.40;3.63;;;13.90;94.90;;;;;;5012815;28;20426;-75
2022/05/10 03:57:49;;;;;;;3.83;3.00;;;14.00;95.00;;;;;;5015848;28;20029;-73
2022/05/10 04:00:27;;;;;;;5.97;3.22;;;14.00;95.00;;;;;;5010549;28;20417;-75
2022/05/10 04:02:56;;;;;;;8.57;3.75;;;13.90;95.10;;;;;;5016243;28;20026;-74
2022/05/10 04:05:23;;;;;;;4.40;3.05;;;14.00;95.20;;;;;;5010671;28;24247;-74
2022/05/10 04:07:53;;;;;;;7.70;3.45;;;14.00;95.20;;;;;;5016418;28;20363;-74
2022/05/10 04:10:19;;;;;;;3.90;2.97;;;14.00;95.10;;;;;;5012664;28;20618;-74
2022/05/10 04:12:46;;;;;;;4.47;2.83;;;13.90;95.20;;;;;;5017242;28;20016;-74
2022/05/10 04:15:20;;;;;;;5.32;3.15;;;13.90;95.00;;;;;;5012625;28;20017;-74
2022/05/10 04:17:47;;;;;;;5.40;3.55;;;14.00;95.00;;;;;;5016855;28;20101;-76
2022/05/10 04:20:16;;;;;;;;;;;14.00;95.00;;;;;;5012165;28;20028;-76
2022/05/10 04:22:43;;;;;;;6.40;3.17;;;14.20;94.90;;;;;;5013437;28;19916;-76
2022/05/10 04:25:13;;;;;;;5.32;3.08;;;14.30;94.90;;;;;;5013433;28;20479;-76
2022/05/10 04:27:39;;;;;;;5.50;3.10;;;14.40;94.80;;;;;;5020836;28;20029;-76
2022/05/10 04:30:07;;;;;;;5.95;3.17;;;14.60;95.10;;;;;;5013677;28;20035;-74
2022/05/10 04:32:36;;;;;;;5.60;3.05;;;14.70;95.10;;;;;;5017789;28;20117;-74
2022/05/10 04:35:03;;;;;;;6.13;2.95;;;14.80;94.90;;;;;;5015866;28;20067;-74
2022/05/10 04:37:29;;;;;;;5.80;3.70;;;15.00;94.80;;;;;;5017698;28;20186;-74
2022/05/10 04:42:45;;;;;;;5.22;3.30;;;15.20;94.40;;;;;;5017177;28;20790;-73
2022/05/10 04:45:15;;;;;;;7.15;3.60;;;15.40;94.20;;;;;;5012212;28;20478;-74
2022/05/10 04:47:40;;;;;;;5.35;2.97;;;15.50;94.10;;;;;;5016953;28;20111;-73
2022/05/10 04:50:09;;;;;;;6.72;3.53;;;15.60;93.70;;;;;;5020886;28;20064;-76
2022/05/10 04:52:36;;;;;;;4.10;2.83;;;15.70;93.50;;;;;;5016823;28;20028;-76
2022/05/10 04:55:04;;;;;;;5.63;3.65;;;15.80;93.90;;;;;;5010965;28;20918;-74
2022/05/10 04:57:39;;;;;;;5.68;3.40;;;16.00;93.60;;;;;;5016156;28;20025;-74
2022/05/10 05:00:07;;;;;;;4.88;3.35;;;16.20;93.40;;;;;;5009567;28;20022;-74
2022/05/10 05:02:35;;;;;;;4.72;3.15;;;16.50;92.40;;;;;;5017209;28;20068;-74
2022/05/10 05:05:02;;;;;;;10.07;3.13;;;16.60;91.80;;;;;;5017810;28;20029;-74
2022/05/10 05:07:28;;;;;;;4.57;3.05;;;16.80;91.60;;;;;;5013785;28;20371;-74
2022/05/10 05:09:56;;;;;;;5.88;3.55;;;16.90;91.10;;;;;;5016082;28;20550;-74
2022/05/10 05:12:23;;;;;;;7.22;3.25;;;17.20;89.40;;;;;;5012205;28;20909;-75
2022/05/10 05:14:50;;;;;;;5.90;3.53;;;17.40;89.00;;;;;;5016266;28;20021;-74
2022/05/10 05:17:17;;;;;;;6.60;3.40;;;17.60;89.40;;;;;;5007054;28;20502;-74
2022/05/10 05:19:45;;;;;;;3.85;3.20;;;17.80;87.80;;;;;;5015172;28;20017;-73
2022/05/10 05:22:11;;;;;;;6.22;3.20;;;17.90;86.70;;;;;;5011514;28;20017;-74
2022/05/10 05:24:37;;;;;;;;;;;18.00;84.80;;;;;;5017271;28;20490;-74
2022/05/10 05:27:04;;;;;;;7.35;3.00;;;18.10;81.70;;;;;;5023922;28;19931;-74
2022/05/10 05:29:29;;;;;;;7.93;3.75;;;18.30;79.90;;;;;;5017662;28;20179;-76
2022/05/10 05:31:56;;;;;;;4.63;3.50;;;18.60;81.40;;;;;;5020240;28;20104;-77
2022/05/10 05:34:22;;;;;;;4.78;3.30;;;18.70;81.20;;;;;;5014060;28;20033;-76
2022/05/10 05:39:41;;;;;;;5.03;2.95;;;19.00;80.50;;;;;;5019982;28;20040;-76
2022/05/10 05:42:07;;;;;;;6.03;3.20;;;19.10;80.50;;;;;;5016928;28;20018;-76
2022/05/10 05:44:44;;;;;;;8.05;3.58;;;19.30;80.50;;;;;;5020707;28;20100;-76
2022/05/10 05:47:15;;;;;;;6.85;3.78;;;19.40;79.70;;;;;;5014734;28;20034;-76
2022/05/10 05:49:43;;;;;;;4.82;3.00;;;19.60;80.20;;;;;;5018710;28;20475;-77
2022/05/10 05:52:20;;;;;;;6.22;3.33;;;19.80;78.20;;;;;;5015742;28;20033;-77
2022/05/10 05:54:46;;;;;;;7.07;3.95;;;19.90;77.80;;;;;;5019313;28;20017;-77
2022/05/10 05:57:12;;;;;;;5.30;3.20;;;20.00;76.70;;;;;;5013828;28;20028;-77
2022/05/10 05:59:38;;;;;;;6.32;3.20;;;20.20;76.50;;;;;;5016933;28;20026;-76
2022/05/10 06:02:14;;;;;;;6.55;3.00;;;20.50;75.50;;;;;;5019312;28;20087;-76
2022/05/10 06:04:40;;;;;;;7.78;3.28;;;21.30;74.30;;;;;;5019344;28;20021;-76
2022/05/10 06:07:06;;;;;;;;;;;22.80;69.60;;;;;;5018961;28;20024;-77
2022/05/10 06:09:32;;;;;;;5.25;2.90;;;24.50;65.20;;;;;;5015353;28;20362;-76
2022/05/10 06:12:02;;;;;;;4.55;3.03;;;26.10;60.80;;;;;;5018954;28;20032;-77
2022/05/10 06:14:35;;;;;;;6.25;3.67;;;27.80;55.80;;;;;;5031081;28;20510;-77
2022/05/10 06:17:09;;;;;;;5.78;2.97;;;29.00;51.40;;;;;;5020061;28;20029;-77
2022/05/10 06:19:38;;;;;;;4.60;2.70;;;29.80;49.60;;;;;;5017271;28;20018;-77
2022/05/10 06:22:08;;;;;;;7.10;3.33;;;30.50;47.60;;;;;;5019998;28;20096;-76
2022/05/10 06:24:42;;;;;;;4.90;2.85;;;31.30;46.00;;;;;;5031108;28;20022;-77
2022/05/10 06:27:13;;;;;;;5.63;2.78;;;31.80;46.10;;;;;;5015823;28;20792;-77
2022/05/10 06:29:38;;;;;;;4.53;2.80;;;32.60;44.30;;;;;;5014439;28;20037;-77
2022/05/10 06:32:05;;;;;;;5.90;3.20;;;32.90;42.90;;;;;;5018984;28;20028;-77
2022/05/10 06:34:31;;;;;;;4.60;3.15;;;33.00;42.30;;;;;;5014997;28;20022;-77
2022/05/10 06:36:57;;;;;;;6.60;3.30;;;33.30;41.50;;;;;;5019170;28;20029;-77
2022/05/10 06:39:26;;;;;;;5.70;3.10;;;33.20;41.40;;;;;;5570007;22;20015;-76
2022/05/10 06:45:17;;;;;;;4.05;2.92;;;32.50;42.00;;;;;;4999966;28;20236;-78
2022/05/10 06:48:09;;;;;;;6.63;3.47;;;32.10;42.10;;;;;;5003647;28;20419;-78
2022/05/10 06:53:57;;;;;;;3.60;2.90;;;32.50;41.90;;;;;;5004377;28;20041;-78
2022/05/10 06:59:45;;;;;;;5.55;2.60;;;32.60;41.50;;;;;;5002171;28;20037;-78
2022/05/10 07:05:33;;;;;;;6.90;2.33;;;32.90;41.90;;;;;;5000117;28;20080;-78
2022/05/10 07:11:21;;;;;;;4.07;2.42;;;33.20;41.20;;;;;;5000368;28;20025;-78
2022/05/10 07:14:45;;;;;;;4.05;3.35;;;33.30;41.30;;;;;;5003423;28;20026;-78
2022/05/10 07:17:13;;;;;;;3.13;2.30;;;33.00;41.50;;;;;;4995570;28;20022;-78
2022/05/10 07:19:39;;;;;;;5.82;2.67;;;33.70;41.10;;;;;;4998051;28;20033;-78
2022/05/10 07:22:06;;;;;;;7.00;3.00;;;34.30;40.60;;;;;;4999093;28;20022;-78
2022/05/10 07:24:39;;;;;;;5.25;2.92;;;34.20;40.30;;;;;;4994122;28;20026;-78
2022/05/10 07:27:09;;;;;;;2.97;2.38;;;33.90;40.50;;;;;;5014018;28;20033;-78
2022/05/10 07:29:40;;;;;;;5.55;3.25;;;34.20;41.00;;;;;;5010309;28;20025;-78
2022/05/10 07:32:08;;;;;;;4.95;2.80;;;34.70;39.50;;;;;;4994646;28;20080;-79
2022/05/10 07:34:35;;;;;;;6.30;3.15;;;34.20;39.70;;;;;;5005653;28;20159;-78
2022/05/10 07:37:02;;;;;;;5.28;2.90;;;34.20;40.40;;;;;;4998565;28;20071;-79
2022/05/10 07:39:30;;;;;;;3.45;2.42;;;33.80;40.40;;;;;;4993956;28;20030;-78
2022/05/10 07:42:03;;;;;;;4.20;2.80;;;34.30;40.50;;;;;;4996608;28;20061;-78
2022/05/10 07:44:33;;;;;;;3.80;2.83;;;34.50;39.90;;;;;;4993855;28;20029;-78
2022/05/10 07:47:04;;;;;;;4.65;2.80;;;34.90;40.00;;;;;;4998199;28;20041;-77
2022/05/10 07:49:30;;;;;;;5.97;3.10;;;35.30;39.40;;;;;;5008749;28;20022;-77
2022/05/10 07:52:05;;;;;;;4.65;3.00;;;35.50;39.00;;;;;;4997507;28;20171;-77
2022/05/10 07:54:35;;;;;;;6.00;3.05;;;36.20;38.50;;;;;;4993437;28;20018;-77
2022/05/10 07:57:06;;;;;;;7.75;3.22;;;36.60;37.90;;;;;;4996505;28;20470;-77
2022/05/10 07:59:36;;;;;;;3.97;2.80;;;35.30;38.30;;;;;;5009032;28;20455;-77
2022/05/10 08:02:02;;;;;;;4.47;3.35;;;35.00;38.80;;;;;;4998491;28;20056;-77
2022/05/10 08:04:30;;;;;;;6.80;3.22;;;35.50;38.60;;;;;;5008727;28;20395;-77
2022/05/10 08:06:56;;;;;;;4.63;3.08;;;36.10;38.00;;;;;;4997595;28;20025;-77
2022/05/10 08:09:23;;;;;;;8.73;3.30;;;36.20;37.60;;;;;;4997185;28;20083;-77
2022/05/10 08:11:55;;;;;;;3.40;3.00;;;36.40;37.60;;;;;;4994474;28;20050;-77
2022/05/10 08:14:21;;;;;;;4.22;3.03;;;37.10;37.50;;;;;;4997659;28;20418;-77
2022/05/10 08:16:51;;;;;;;6.65;3.15;;;37.10;37.20;;;;;;4993263;28;20053;-76
2022/05/10 08:19:22;;;;;;;6.68;3.55;;;37.00;37.40;;;;;;4996768;28;20348;-77
2022/05/10 08:22:01;;;;;;;8.40;3.90;;;36.90;36.90;;;;;;4994019;28;20483;-76
2022/05/10 08:24:28;;;;;;;5.43;3.13;;;36.20;36.90;;;;;;5008068;28;20551;-80
2022/05/10 08:26:59;;;;;;;5.13;3.60;;;36.60;36.90;;;;;;5012814;28;20069;-79
2022/05/10 08:29:26;;;;;;;6.57;3.35;;;36.30;36.90;;;;;;4993816;28;20037;-80
2022/05/10 08:31:53;;;;;;;8.07;4.35;;;35.90;37.60;;;;;;4996190;28;20116;-79
2022/05/10 08:34:19;;;;;;;6.90;3.97;;;35.00;37.70;;;;;;4997195;28;20574;-79
2022/05/10 08:36:46;;;;;;;5.15;3.97;;;34.20;38.20;;;;;;5008380;28;20467;-78
2022/05/10 08:39:13;;;;;;;9.93;4.15;;;34.30;39.20;;;;;;5012109;28;20044;-77
2022/05/10 08:41:57;;;;;;;8.77;4.35;;;34.80;38.70;;;;;;5008076;28;20045;-78
2022/05/10 08:44:29;;;;;;;9.80;4.97;;;34.10;38.40;;;;;;4996687;28;20024;-78
2022/05/10 08:47:06;;;;;;;6.70;3.72;;;34.60;38.50;;;;;;4996924;28;20022;-78
2022/05/10 08:49:53;;;;;;;7.60;4.57;;;34.10;39.40;;;;;;5008287;28;20029;-77
2022/05/10 08:52:24;;;;;;;5.93;3.40;;;34.30;38.40;;;;;;5011785;28;20083;-78
2022/05/10 08:54:51;;;;;;;5.57;4.03;;;34.30;38.80;;;;;;5011743;28;20059;-77
2022/05/10 08:57:35;;;;;;;6.55;4.10;;;34.20;39.20;;;;;;4997014;28;20103;-78
2022/05/10 09:00:16;;;;;;;8.15;3.85;;;34.60;38.30;;;;;;4997952;28;20022;-76
2022/05/10 09:03:17;;;;;;;7.72;4.13;;;34.90;39.00;;;;;;4997065;28;20010;-77
2022/05/10 09:05:48;;;;;;;6.70;3.20;;;34.80;38.90;;;;;;4994815;28;20470;-77
2022/05/10 09:08:37;;;;;;;6.85;4.00;;;34.50;39.00;;;;;;5000541;28;20021;-78
2022/05/10 09:11:14;;;;;;;4.28;3.33;;;35.40;37.90;;;;;;5000565;28;20021;-78
2022/05/10 09:13:43;;;;;;;9.07;4.00;;;34.50;38.50;;;;;;5011576;28;20026;-78
2022/05/10 09:16:12;;;;;;;4.22;3.33;;;33.80;38.70;;;;;;5000745;28;20029;-77
2022/05/10 09:18:46;;;;;;;7.90;3.33;;;33.30;39.70;;;;;;5012228;28;20025;-78
2022/05/10 09:21:27;;;;;;;3.97;3.15;;;33.50;38.90;;;;;;5000035;28;20017;-77
2022/05/10 09:24:17;;;;;;;6.30;3.70;;;34.00;38.70;;;;;;5016703;28;20038;-78
2022/05/10 09:26:47;;;;;;;9.10;3.60;;;34.50;38.40;;;;;;4994760;28;20092;-78
2022/05/10 09:29:35;;;;;;;5.97;3.25;;;35.20;37.60;;;;;;5000568;28;20140;-78
2022/05/10 09:35:19;;;;;;;6.65;3.58;;;34.20;39.00;;;;;;4995940;28;20041;-78
2022/05/10 09:37:54;;;;;;;4.85;3.20;;;33.80;38.70;;;;;;4993544;28;20693;-78
2022/05/10 09:40:25;;;;;;;6.63;3.33;;;34.10;38.40;;;;;;5013427;28;20577;-77
2022/05/10 09:43:09;;;;;;;4.80;3.65;;;34.30;37.80;;;;;;5000669;28;20148;-78
2022/05/10 09:45:37;;;;;;;5.38;3.30;;;34.40;37.60;;;;;;5008444;28;20022;-78
2022/05/10 09:48:18;;;;;;;3.03;2.78;;;34.60;37.50;;;;;;5000866;28;20049;-77
2022/05/10 09:50:51;;;;;;;3.10;2.60;;;34.60;37.80;;;;;;4994885;28;20298;-78
2022/05/10 09:53:33;;;;;;;3.67;2.83;;;35.30;37.40;;;;;;5014753;28;20018;-78
2022/05/10 09:56:39;;;;;;;4.55;2.92;;;35.80;36.90;;;;;;4999960;28;20049;-78
2022/05/10 09:59:27;;;;;;;4.18;3.20;;;34.90;37.10;;;;;;4982779;28;20038;-78
2022/05/10 10:01:58;;;;;;;5.60;3.20;;;33.90;37.50;;;;;;4998500;28;20029;-78
2022/05/10 10:04:32;;;;;;;2.85;2.35;;;33.90;37.50;;;;;;5014930;28;20030;-77
2022/05/10 10:07:20;;;;;;;3.53;2.25;;;33.70;36.30;;;;;;5012867;28;20034;-77
2022/05/10 10:09:51;;;;;;;3.80;2.55;;;33.40;37.10;;;;;;4993504;28;20100;-78
2022/05/10 10:12:43;;;;;;;4.15;3.10;;;33.20;37.60;;;;;;4999258;28;20073;-78
2022/05/10 10:15:21;;;;;;;6.32;3.05;;;33.30;38.20;;;;;;4997105;28;20439;-77
2022/05/10 10:18:08;;;;;;;3.75;2.83;;;32.60;38.30;;;;;;4993431;28;20041;-77
2022/05/10 10:20:57;;;;;;;6.40;2.90;;;32.30;38.10;;;;;;4994723;28;20715;-78
2022/05/10 10:23:35;;;;;;;7.25;2.95;;;33.00;38.10;;;;;;5011451;28;20109;-77
2022/05/10 10:26:17;;;;;;;4.63;2.97;;;32.90;37.60;;;;;;4999325;28;20025;-77
2022/05/10 10:28:52;;;;;;;3.42;2.60;;;32.30;37.50;;;;;;4993285;28;20049;-77
2022/05/10 10:31:32;;;;;;;5.10;2.72;;;31.60;38.40;;;;;;4999369;28;20547;-77
2022/05/10 10:34:07;;;;;;;3.53;2.92;;;31.10;39.00;;;;;;5015442;28;20816;-77
2022/05/10 10:36:56;;;;;;;5.68;2.95;;;31.20;39.50;;;;;;5011171;28;20018;-77
2022/05/10 10:39:43;;;;;;;5.25;2.63;;;29.90;40.10;;;;;;5014499;28;20714;-77
2022/05/10 10:42:26;;;;;;;5.00;2.83;;;29.40;41.60;;;;;;4997485;28;20057;-78
2022/05/10 10:44:57;;;;;;;6.50;2.90;;;29.70;40.50;;;;;;4994733;28;20573;-77
2022/05/10 10:47:58;;;;;;;4.82;3.10;;;31.00;39.60;;;;;;4999553;28;20539;-77
2022/05/10 10:50:33;;;;;;;3.65;2.65;;;31.20;39.10;;;;;;4997328;28;20045;-77
2022/05/10 10:53:00;;;;;;;4.50;2.97;;;31.50;39.00;;;;;;4999335;28;20375;-77
2022/05/10 10:55:59;;;;;;;4.22;2.97;;;31.10;38.80;;;;;;4999566;28;20042;-77
2022/05/10 10:59:04;;;;;;;3.88;2.80;;;30.20;39.50;;;;;;4988991;28;20030;-79
2022/05/10 11:01:42;;;;;;;5.32;2.88;;;30.10;40.50;;;;;;4996553;28;20108;-79
2022/05/10 11:04:29;;;;;;;4.78;3.03;;;29.20;40.80;;;;;;4996915;28;20036;-79
2022/05/10 11:07:07;;;;;;;5.53;3.22;;;28.70;41.40;;;;;;4995382;28;20371;-79
2022/05/10 11:10:03;;;;;;;3.00;2.67;;;28.30;42.40;;;;;;4994465;28;20029;-79
2022/05/10 11:12:59;;;;;;;4.03;2.53;;;28.10;43.70;;;;;;5014646;28;20021;-79
2022/05/10 11:15:28;;;;;;;4.40;3.00;;;27.90;43.30;;;;;;4998949;28;20106;-79
2022/05/10 11:18:21;;;;;;;4.97;3.10;;;27.80;43.40;;;;;;4993857;28;20018;-76
2022/05/10 11:21:05;;;;;;;2.50;2.30;;;27.70;43.60;;;;;;4952557;28;20114;-76
2022/05/10 11:24:04;;;;;;;4.47;2.80;;;27.50;43.90;;;;;;5000504;28;20014;-79
2022/05/10 11:27:02;;;;;;;2.97;2.53;;;27.50;43.60;;;;;;4999553;28;20383;-79
2022/05/10 11:29:53;;;;;;;3.90;2.90;;;27.30;43.60;;;;;;4998288;28;20034;-78
2022/05/10 11:32:44;;;;;;;3.22;2.67;;;27.10;44.20;;;;;;4997961;28;20033;-78
2022/05/10 11:35:49;;;;;;;4.20;2.97;;;27.30;44.20;;;;;;4997981;28;20076;-78
2022/05/10 11:38:20;;;;;;;4.07;3.00;;;27.10;44.20;;;;;;4996966;28;20029;-79
2022/05/10 11:41:03;;;;;;;3.60;2.50;;;27.00;44.40;;;;;;4993630;28;20018;-78
2022/05/10 11:44:02;;;;;;;6.90;2.70;;;27.20;44.60;;;;;;4998967;28;20940;-79
2022/05/10 11:46:51;;;;;;;4.30;2.65;;;27.40;45.30;;;;;;4997867;28;20053;-76
2022/05/10 11:49:48;;;;;;;3.90;2.78;;;27.50;44.70;;;;;;4998017;28;20022;-79
2022/05/10 11:52:35;;;;;;;3.00;2.33;;;27.60;43.60;;;;;;4996526;28;20475;-79
2022/05/10 11:55:40;;;;;;;6.10;2.60;;;27.60;44.90;;;;;;4998020;28;20812;-78
2022/05/10 11:58:14;;;;;;;5.22;2.92;;;27.70;44.60;;;;;;4995979;28;20014;-79
2022/05/10 12:00:52;;;;;;;4.32;2.63;;;27.70;44.50;;;;;;4989962;28;20045;-79
2022/05/10 12:03:43;;;;;;;4.10;2.40;;;27.50;44.80;;;;;;4997886;28;20026;-79
2022/05/10 12:06:32;;;;;;;3.78;2.35;;;27.50;44.90;;;;;;5009939;28;20025;-79
2022/05/10 12:09:01;;;;;;;4.90;2.78;;;27.40;45.70;;;;;;4991107;28;20479;-79
2022/05/10 12:11:34;;;;;;;4.45;2.72;;;27.50;44.50;;;;;;4996700;28;20727;-79
2022/05/10 12:22:58;;;;;;;6.15;2.85;;;26.60;44.90;;;;;;4992616;28;21000;-78
2022/05/10 12:26:06;;;;;;;3.40;2.80;;;26.70;45.10;;;;;;4997903;28;20396;-78
2022/05/10 12:28:35;;;;;;;;;;;26.80;45.90;;;;;;4998804;28;20018;-78
2022/05/10 12:31:34;;;;;;;4.80;2.90;;;26.70;44.90;;;;;;4995361;28;19988;-78
2022/05/10 12:34:07;;;;;;;4.75;2.47;;;26.80;45.00;;;;;;4993241;28;20022;-79
2022/05/10 12:36:35;;;;;;;3.55;2.45;;;26.60;45.30;;;;;;4996952;28;20022;-78
2022/05/10 12:39:26;;;;;;;3.25;2.50;;;26.50;46.30;;;;;;5010483;28;20018;-78
2022/05/10 12:42:19;;;;;;;3.28;2.58;;;26.50;46.20;;;;;;4992513;28;20638;-76
2022/05/10 12:44:58;;;;;;;5.30;2.45;;;26.60;45.50;;;;;;5006587;28;20374;-78
2022/05/10 12:47:44;;;;;;;4.28;2.35;;;26.70;45.60;;;;;;4996881;28;20029;-78
2022/05/10 12:50:29;;;;;;;2.95;2.45;;;26.80;46.80;;;;;;4995443;28;20506;-78
2022/05/10 12:52:58;;;;;;;5.05;2.30;;;26.70;44.50;;;;;;4993236;28;20116;-78
2022/05/10 12:55:33;;;;;;;2.88;2.40;;;26.50;45.70;;;;;;4997823;28;20030;-78
2022/05/10 12:58:22;;;;;;;4.47;2.38;;;26.60;45.80;;;;;;4993675;28;20026;-78
2022/05/10 13:00:59;;;;;;;4.85;2.22;;;26.70;45.70;;;;;;4990789;28;20097;-78
2022/05/10 13:03:37;;;;;;;4.75;2.72;;;26.60;45.30;;;;;;4996620;28;20819;-79
2022/05/10 13:06:19;;;;;;;3.58;2.40;;;26.50;45.60;;;;;;4994348;28;20014;-78
2022/05/10 13:09:06;;;;;;;4.38;2.38;;;26.50;45.60;;;;;;4989484;28;20034;-78
2022/05/10 13:11:42;;;;;;;3.60;2.30;;;26.30;45.00;;;;;;5012203;28;20088;-79
2022/05/10 13:14:11;;;;;;;3.35;2.30;;;26.40;44.70;;;;;;5013061;28;20554;-77
2022/05/10 13:16:48;;;;;;;3.22;1.98;;;26.30;45.10;;;;;;4997776;28;20501;-78
2022/05/10 13:19:23;;;;;;;4.70;2.53;;;26.30;45.40;;;;;;4994983;28;20383;-78
2022/05/10 13:21:58;;;;;;;4.32;2.30;;;26.50;44.80;;;;;;5006803;28;20459;-79
2022/05/10 13:24:26;;;;;;;5.05;1.90;;;26.60;44.50;;;;;;5011888;28;20038;-78
2022/05/10 13:27:03;;;;;;;2.45;1.65;;;26.60;43.20;;;;;;5007479;28;20029;-78
2022/05/10 13:29:48;;;;;;;4.80;2.65;;;26.50;42.50;;;;;;4996278;28;20022;-78
2022/05/10 13:32:33;;;;;;;3.28;1.48;;;26.50;42.80;;;;;;4994634;28;20113;-78
2022/05/10 13:35:11;;;;;;;3.53;1.98;;;26.30;43.90;;;;;;4992850;28;20989;-78
2022/05/10 13:37:53;;;;;;;3.10;2.00;;;26.20;44.50;;;;;;4997109;28;20022;-78
2022/05/10 13:40:31;;;;;;;4.38;2.17;;;26.30;44.40;;;;;;5011311;28;20018;-78
2022/05/10 13:43:20;;;;;;;7.20;2.63;;;26.30;43.40;;;;;;4992800;28;20042;-77
2022/05/10 13:45:52;;;;;;;3.25;2.03;;;26.20;45.00;;;;;;4990867;28;20022;-79
2022/05/10 13:48:25;;;;;;;3.05;1.80;;;26.20;42.70;;;;;;5014004;28;20029;-79
2022/05/10 13:50:56;;;;;;;3.28;1.67;;;26.00;43.50;;;;;;5009396;28;20450;-77
2022/05/10 13:53:31;;;;;;;4.18;2.33;;;25.80;44.00;;;;;;5014792;28;20045;-77
2022/05/10 13:55:59;;;;;;;2.95;1.90;;;25.60;44.40;;;;;;4995505;28;20022;-77
2022/05/10 13:58:33;;;;;;;2.30;1.90;;;25.50;43.20;;;;;;5015426;28;20803;-76
2022/05/10 14:01:00;;;;;;;4.82;1.90;;;25.60;43.50;;;;;;5011073;28;20452;-77
2022/05/10 14:03:27;;;;;;;4.25;1.63;;;25.80;43.20;;;;;;4999944;28;20026;-76
2022/05/10 14:06:08;;;;;;;2.55;1.80;;;25.80;44.00;;;;;;4995193;28;20076;-77
2022/05/10 14:08:39;;;;;;;3.53;2.33;;;25.90;43.60;;;;;;4997707;28;20044;-76